Time;durP1;ratioP1;P1;durP2;ratioP2;P2;SDS_P1;SDS_P2;PMS_P1;PMS_P2;Temp;Humidity;BMP_temperature;BMP_pressure;BME280_temperature;BME280_humidity;BME280_pressure;Samples;Min_cycle;Max_cycle;Signal;HPM_P1;HPM_P2
2023/07/06 00:00:03;;;;;;;9.27;7.20;;;;;;;11.36;100.00;101408.94;1056969;28;20293;-44
2023/07/06 00:00:42;;;;;;;10.93;7.88;;;;;;;11.42;100.00;101397.44;1056467;28;20363;-37
2023/07/06 00:01:13;;;;;;;8.48;7.68;;;;;;;11.43;100.00;101404.41;1056880;28;20359;-36
2023/07/06 00:01:45;;;;;;;9.57;8.32;;;;;;;11.46;100.00;101403.97;1056434;28;20664;-37
2023/07/06 00:02:18;;;;;;;9.45;8.38;;;;;;;11.46;100.00;101398.66;1056376;28;20333;-37
2023/07/06 00:02:50;;;;;;;11.38;9.55;;;;;;;11.45;100.00;101398.84;1056784;28;20290;-36
2023/07/06 00:03:25;;;;;;;8.57;7.53;;;;;;;11.42;100.00;101400.09;1056680;28;20297;-37
2023/07/06 00:03:57;;;;;;;9.63;8.13;;;;;;;11.43;100.00;101411.59;1056074;28;20335;-37
2023/07/06 00:04:28;;;;;;;11.95;8.25;;;;;;;11.47;100.00;101404.81;1052513;28;20294;-37
2023/07/06 00:05:00;;;;;;;10.43;7.95;;;;;;;11.50;100.00;101395.56;1052002;28;20313;-36
2023/07/06 00:05:34;;;;;;;8.15;6.95;;;;;;;11.48;100.00;101401.09;1052159;28;20842;-36
2023/07/06 00:06:07;;;;;;;8.23;6.97;;;;;;;11.46;100.00;101406.66;1053465;28;20294;-36
2023/07/06 00:06:39;;;;;;;8.60;7.03;;;;;;;11.52;100.00;101404.19;1056533;28;20327;-36
2023/07/06 00:07:12;;;;;;;8.68;7.75;;;;;;;11.39;100.00;101411.19;1056391;28;20304;-37
2023/07/06 00:07:44;;;;;;;10.48;7.03;;;;;;;11.33;100.00;101404.00;1056438;28;20701;-37
2023/07/06 00:08:16;;;;;;;12.05;7.32;;;;;;;11.34;100.00;101410.16;1056740;28;20375;-37
2023/07/06 00:08:48;;;;;;;9.68;7.38;;;;;;;11.43;100.00;101407.06;1057015;28;20733;-45
2023/07/06 00:09:20;;;;;;;7.60;6.85;;;;;;;11.30;100.00;101407.09;1057402;28;20320;-44
2023/07/06 00:09:52;;;;;;;8.95;7.85;;;;;;;11.40;100.00;101404.81;1056758;28;20293;-44
2023/07/06 00:10:24;;;;;;;9.02;7.57;;;;;;;11.42;100.00;101401.94;1056784;28;20300;-45
2023/07/06 00:10:56;;;;;;;12.25;8.43;;;;;;;11.44;100.00;101410.56;1056711;28;20355;-45
2023/07/06 00:11:33;;;;;;;8.35;7.50;;;;;;;11.46;100.00;101409.31;1056874;28;20289;-44
2023/07/06 00:12:05;;;;;;;9.35;7.22;;;;;;;11.44;100.00;101410.56;1056957;28;20281;-44
2023/07/06 00:12:37;;;;;;;8.00;7.15;;;;;;;11.42;100.00;101412.63;1056488;28;20724;-45
2023/07/06 00:13:09;;;;;;;11.25;7.47;;;;;;;11.41;100.00;101406.47;1056654;28;20300;-44
2023/07/06 00:13:41;;;;;;;13.68;8.02;;;;;;;11.37;100.00;101413.25;1056939;28;20281;-44
2023/07/06 00:14:14;;;;;;;11.93;7.45;;;;;;;11.30;100.00;101406.28;1056460;28;20293;-44
2023/07/06 00:14:46;;;;;;;7.55;6.63;;;;;;;11.31;100.00;101416.75;1056476;28;20296;-44
2023/07/06 00:15:18;;;;;;;9.55;8.20;;;;;;;11.41;100.00;101411.78;1056675;28;20297;-46
2023/07/06 00:15:50;;;;;;;8.27;6.90;;;;;;;11.34;100.00;101413.66;1056899;28;20997;-44
2023/07/06 00:16:21;;;;;;;9.18;7.55;;;;;;;11.41;100.00;101411.78;1058042;28;20297;-43
2023/07/06 00:17:12;;;;;;;9.25;8.07;;;;;;;11.44;100.00;101416.72;1056500;28;20846;-37
2023/07/06 00:17:44;;;;;;;9.07;7.47;;;;;;;11.39;100.00;101413.84;1054125;28;20384;-37
2023/07/06 00:18:17;;;;;;;7.72;6.60;;;;;;;11.30;100.00;101415.09;1056620;28;20794;-36
2023/07/06 00:18:48;;;;;;;8.70;7.18;;;;;;;11.29;100.00;101410.78;1056515;27;20293;-37
2023/07/06 00:19:20;;;;;;;7.75;6.57;;;;;;;11.23;100.00;101411.63;1056781;28;20291;-36
2023/07/06 00:19:52;;;;;;;12.50;7.38;;;;;;;11.37;100.00;101415.91;1056787;27;20395;-37
2023/07/06 00:20:23;;;;;;;8.82;7.88;;;;;;;11.27;100.00;101420.84;1056413;28;20798;-37
2023/07/06 00:20:57;;;;;;;12.40;7.43;;;;;;;11.13;100.00;101408.53;1056825;28;20286;-36
2023/07/06 00:21:32;;;;;;;11.98;7.93;;;;;;;11.16;100.00;101413.47;1054334;28;20298;-36
2023/07/06 00:22:04;;;;;;;9.63;7.20;;;;;;;11.20;100.00;101419.19;1056452;28;20289;-37
2023/07/06 00:22:36;;;;;;;9.85;8.60;;;;;;;11.27;100.00;101420.84;1056825;28;20297;-37
2023/07/06 00:23:09;;;;;;;11.32;8.55;;;;;;;11.32;100.00;101418.38;1056881;28;20346;-37
2023/07/06 00:23:43;;;;;;;7.93;7.03;;;;;;;11.10;100.00;101414.28;1056592;28;20293;-37
2023/07/06 00:24:15;;;;;;;7.80;7.00;;;;;;;11.21;100.00;101415.50;1056675;28;20324;-36
2023/07/06 00:24:48;;;;;;;9.52;6.97;;;;;;;11.23;100.00;101408.97;1056667;28;20314;-37
2023/07/06 00:25:19;;;;;;;8.68;7.28;;;;;;;11.30;100.00;101420.44;1056656;28;20304;-36
2023/07/06 00:25:51;;;;;;;8.70;7.78;;;;;;;11.34;100.00;101415.50;1056497;28;20667;-36
2023/07/06 00:26:23;;;;;;;9.55;7.70;;;;;;;11.34;100.00;101419.00;1056716;28;20638;-36
2023/07/06 00:26:55;;;;;;;12.70;8.07;;;;;;;11.32;100.00;101417.56;1056657;28;20289;-37
2023/07/06 00:27:28;;;;;;;11.00;8.27;;;;;;;11.26;100.00;101413.88;1056757;27;20504;-48
2023/07/06 00:28:02;;;;;;;9.35;8.35;;;;;;;11.30;100.00;101419.63;1056999;28;20454;-37
2023/07/06 00:28:34;;;;;;;10.65;7.30;;;;;;;10.99;100.00;101423.72;1056270;28;20382;-37
2023/07/06 00:29:06;;;;;;;7.93;6.85;;;;;;;11.06;100.00;101413.88;1056202;28;20293;-37
2023/07/06 00:29:46;;;;;;;9.25;7.30;;;;;;;11.19;100.00;101413.03;1056059;28;20309;-37
2023/07/06 00:30:20;;;;;;;9.35;7.80;;;;;;;11.21;100.00;101421.66;1056316;28;20801;-37
2023/07/06 00:30:55;;;;;;;9.20;7.47;;;;;;;11.19;100.00;101418.38;1052282;28;20670;-37
2023/07/06 00:31:32;;;;;;;9.77;7.68;;;;;;;11.15;100.00;101411.81;1052639;28;20295;-37
2023/07/06 00:32:26;;;;;;;10.50;8.63;;;;;;;11.21;100.00;101418.16;1056827;28;20631;-37
2023/07/06 00:32:58;;;;;;;9.02;7.78;;;;;;;11.17;100.00;101423.09;1053849;28;20294;-37
2023/07/06 00:33:30;;;;;;;9.82;7.63;;;;;;;11.18;100.00;101414.06;1051535;28;20849;-37
2023/07/06 00:34:04;;;;;;;10.75;7.47;;;;;;;11.30;100.00;101419.63;1052060;28;20320;-37
2023/07/06 00:34:36;;;;;;;11.85;7.20;;;;;;;11.19;100.00;101415.72;1053159;28;20286;-37
2023/07/06 00:35:10;;;;;;;12.40;6.88;;;;;;;11.12;100.00;101414.91;1056255;28;20305;-37
2023/07/06 00:35:42;;;;;;;10.13;7.50;;;;;;;11.11;100.00;101421.25;1055865;28;20389;-37
2023/07/06 00:36:13;;;;;;;14.70;8.30;;;;;;;11.21;100.00;101421.66;1056614;28;20301;-37
2023/07/06 00:36:48;;;;;;;9.20;8.23;;;;;;;11.23;100.00;101413.44;1056429;28;20305;-37
2023/07/06 00:37:21;;;;;;;13.65;7.60;;;;;;;11.18;100.00;101416.72;1056510;28;20297;-37
2023/07/06 00:37:54;;;;;;;8.27;7.22;;;;;;;11.11;100.00;101418.59;1056788;28;20298;-37
2023/07/06 00:38:26;;;;;;;8.10;7.30;;;;;;;11.14;100.00;101421.66;1056561;28;20296;-36
2023/07/06 00:39:01;;;;;;;12.30;7.88;;;;;;;11.21;100.00;101428.84;1056513;28;20301;-36
2023/07/06 00:39:33;;;;;;;8.82;7.28;;;;;;;11.08;100.00;101419.00;1056560;28;20302;-37
2023/07/06 00:40:09;;;;;;;8.68;7.85;;;;;;;11.06;100.00;101419.22;1056718;28;20297;-37
2023/07/06 00:40:46;;;;;;;9.77;8.13;;;;;;;11.23;100.00;101408.97;1056989;28;20304;-37
2023/07/06 00:41:17;;;;;;;9.85;8.10;;;;;;;11.25;100.00;101422.91;1056755;27;20301;-37
2023/07/06 00:41:49;;;;;;;9.77;7.95;;;;;;;11.25;100.00;101412.25;1055736;28;20339;-37
2023/07/06 00:42:22;;;;;;;10.15;7.38;;;;;;;11.27;100.00;101420.03;1056279;28;20297;-37
2023/07/06 00:42:54;;;;;;;9.48;8.48;;;;;;;11.38;100.00;101425.53;1056132;28;20301;-36
2023/07/06 00:43:47;;;;;;;9.70;8.05;;;;;;;11.45;100.00;101414.84;1053423;28;20310;-37
2023/07/06 00:44:47;;;;;;;11.40;8.25;;;;;;;11.49;100.00;101423.25;1056247;28;20304;-37
2023/07/06 00:45:19;;;;;;;9.27;8.25;;;;;;;11.49;100.00;101424.09;1056582;28;20389;-37
2023/07/06 00:45:53;;;;;;;9.05;8.13;;;;;;;11.31;100.00;101429.25;1056433;28;20654;-37
2023/07/06 00:46:36;;;;;;;9.98;8.55;;;;;;;11.46;100.00;101422.66;1052070;28;20313;-36
2023/07/06 00:47:09;;;;;;;9.93;7.97;;;;;;;11.56;100.00;101422.25;1051124;28;20294;-37
2023/07/06 00:47:45;;;;;;;9.88;8.07;;;;;;;11.57;100.00;101415.06;1051924;28;20333;-37
2023/07/06 00:48:33;;;;;;;10.82;7.95;;;;;;;11.53;100.00;101416.50;1051054;28;20375;-37
2023/07/06 00:49:11;;;;;;;12.00;9.05;;;;;;;11.60;100.00;101419.97;1051919;28;20759;-37
2023/07/06 00:49:42;;;;;;;12.32;9.63;;;;;;;11.62;100.00;101417.91;1052019;28;20301;-37
2023/07/06 00:50:20;;;;;;;12.63;9.15;;;;;;;11.63;100.00;101420.38;1055755;28;20305;-37
2023/07/06 00:50:55;;;;;;;11.18;8.68;;;;;;;11.69;100.00;101421.38;1047959;28;20696;-37
2023/07/06 00:51:32;;;;;;;11.77;9.10;;;;;;;11.67;100.00;101420.78;1045750;28;20298;-37
2023/07/06 00:52:04;;;;;;;15.00;9.80;;;;;;;11.74;100.00;101421.56;1048085;28;20321;-37
2023/07/06 00:52:40;;;;;;;11.93;9.18;;;;;;;11.71;100.00;101422.81;1051309;28;20389;-36
2023/07/06 00:53:14;;;;;;;9.43;8.43;;;;;;;11.69;100.00;101418.72;1054174;28;20313;-36
2023/07/06 00:53:49;;;;;;;10.30;9.18;;;;;;;11.63;100.00;101419.56;1056082;28;20316;-37
2023/07/06 00:54:22;;;;;;;10.82;8.73;;;;;;;11.73;100.00;101422.59;1052226;28;20368;-37
2023/07/06 00:54:54;;;;;;;11.35;9.63;;;;;;;11.73;100.00;101425.28;1051174;28;20294;-36
2023/07/06 00:55:28;;;;;;;10.23;8.30;;;;;;;11.77;100.00;101427.31;1052081;28;20318;-36
2023/07/06 00:56:00;;;;;;;13.27;8.73;;;;;;;11.77;100.00;101421.16;1048593;28;20669;-37
2023/07/06 00:56:36;;;;;;;11.27;8.60;;;;;;;11.76;100.00;101422.19;1047869;28;20676;-37
2023/07/06 00:57:13;;;;;;;12.40;9.55;;;;;;;11.78;100.00;101428.19;1047505;28;20284;-36
2023/07/06 00:57:47;;;;;;;10.38;8.45;;;;;;;11.80;100.00;101423.47;1046065;28;20400;-36
2023/07/06 00:58:26;;;;;;;10.85;7.93;;;;;;;11.74;100.00;101429.59;1041263;28;20304;-36
2023/07/06 00:59:03;;;;;;;11.27;8.60;;;;;;;11.81;100.00;101425.09;1044315;28;20797;-36
2023/07/06 00:59:37;;;;;;;11.52;9.20;;;;;;;11.82;100.00;101429.41;1046229;28;20299;-37
2023/07/06 01:00:12;;;;;;;11.90;9.77;;;;;;;11.83;100.00;101424.88;1050392;28;20388;-37
2023/07/06 01:00:44;;;;;;;11.48;9.65;;;;;;;11.91;100.00;101422.78;1049529;28;20776;-37
2023/07/06 01:01:21;;;;;;;9.65;8.40;;;;;;;11.90;100.00;101429.16;1053574;28;20880;-37
2023/07/06 01:01:53;;;;;;;14.82;9.32;;;;;;;11.83;100.00;101430.22;1052254;28;20294;-36
2023/07/06 01:02:27;;;;;;;9.82;7.80;;;;;;;11.80;100.00;101423.47;1052972;28;20297;-36
2023/07/06 01:03:01;;;;;;;9.77;8.02;;;;;;;11.83;100.00;101419.56;1047694;28;20812;-37
2023/07/06 01:03:35;;;;;;;10.48;8.95;;;;;;;11.89;100.00;101422.19;1045261;28;20642;-37
2023/07/06 01:04:08;;;;;;;12.43;9.45;;;;;;;11.85;100.00;101428.97;1043211;28;20825;-37
2023/07/06 01:04:40;;;;;;;18.17;9.48;;;;;;;11.90;100.00;101433.69;1046402;28;20823;-37
2023/07/06 01:05:12;;;;;;;10.52;8.30;;;;;;;11.83;100.00;101425.72;1053192;28;20298;-37
2023/07/06 01:05:43;;;;;;;11.88;9.40;;;;;;;11.84;100.00;101430.00;1052507;28;20302;-36
2023/07/06 01:06:17;;;;;;;12.32;8.55;;;;;;;11.85;100.00;101428.97;1056075;28;20335;-36
2023/07/06 01:06:54;;;;;;;11.02;8.80;;;;;;;11.90;100.00;101429.16;1056417;28;20299;-38
2023/07/06 01:07:26;;;;;;;11.63;8.75;;;;;;;11.84;100.00;101427.34;1054116;28;20316;-45
2023/07/06 01:08:07;;;;;;;10.38;8.10;;;;;;;11.93;100.00;101423.41;1056652;28;20300;-44
2023/07/06 01:08:38;;;;;;;12.50;9.48;;;;;;;11.91;100.00;101432.66;1056382;27;20297;-44
2023/07/06 01:09:11;;;;;;;15.52;9.48;;;;;;;11.92;100.00;101431.63;1056072;28;20066;-46
2023/07/06 01:09:43;;;;;;;13.52;8.95;;;;;;;11.91;100.00;101430.81;1056259;28;20400;-44
2023/07/06 01:10:15;;;;;;;9.45;8.52;;;;;;;11.93;100.00;101435.94;1051755;28;20298;-43
2023/07/06 01:10:48;;;;;;;12.93;9.30;;;;;;;11.98;100.00;101434.25;1051709;28;20306;-44
2023/07/06 01:11:20;;;;;;;10.25;8.10;;;;;;;11.99;100.00;101430.56;1050660;28;20314;-44
2023/07/06 01:11:55;;;;;;;15.43;8.98;;;;;;;11.99;100.00;101430.56;1053052;28;20328;-45
2023/07/06 01:12:27;;;;;;;11.52;8.82;;;;;;;12.00;100.00;101434.88;1057709;27;20838;-45
2023/07/06 01:13:03;;;;;;;9.73;8.73;;;;;;;12.01;100.00;101430.34;1060108;27;20307;-46
2023/07/06 01:13:36;;;;;;;12.50;8.77;;;;;;;12.01;100.00;101428.50;1060177;27;20820;-45
2023/07/06 01:14:12;;;;;;;12.52;10.65;;;;;;;11.99;100.00;101433.22;1061030;27;20311;-46
2023/07/06 01:14:45;;;;;;;10.35;8.82;;;;;;;11.98;100.00;101423.59;1060453;27;20308;-45
2023/07/06 01:15:18;;;;;;;12.15;8.57;;;;;;;12.01;100.00;101431.16;1051531;28;20302;-45
2023/07/06 01:15:56;;;;;;;14.00;9.60;;;;;;;12.13;100.00;101425.19;1052226;28;20787;-37
2023/07/06 01:16:51;;;;;;;9.00;7.97;;;;;;;12.06;100.00;101426.03;1051924;28;20380;-44
2023/07/06 01:17:27;;;;;;;12.40;8.93;;;;;;;12.12;100.00;101428.88;1056179;28;20564;-44
2023/07/06 01:18:41;;;;;;;11.40;8.93;;;;;;;12.09;100.00;101413.28;1051969;28;20388;-43
2023/07/06 01:20:01;;;;;;;15.23;8.38;;;;;;;12.11;100.00;101421.91;1056208;28;20373;-44
2023/07/06 01:20:39;;;;;;;14.45;8.77;;;;;;;12.18;100.00;101412.00;1056426;28;20297;-44
2023/07/06 01:21:16;;;;;;;12.10;9.52;;;;;;;12.06;100.00;101415.34;1056116;28;20036;-45
2023/07/06 01:21:58;;;;;;;12.35;9.10;;;;;;;12.10;100.00;101421.09;1050191;28;20330;-44
2023/07/06 01:22:48;;;;;;;11.13;8.48;;;;;;;12.07;100.00;101419.66;1050961;28;20775;-45
2023/07/06 01:23:44;;;;;;;17.33;9.05;;;;;;;12.12;100.00;101423.56;1056591;28;20328;-42
2023/07/06 01:24:25;;;;;;;11.00;8.75;;;;;;;12.08;100.00;101433.84;1060771;27;20292;-43
2023/07/06 01:25:17;;;;;;;12.82;8.48;;;;;;;12.07;100.00;101427.69;1060853;27;20353;-43
2023/07/06 01:26:04;;;;;;;12.90;9.00;;;;;;;12.02;100.00;101424.78;1060998;27;20043;-44
2023/07/06 01:26:48;;;;;;;10.32;8.32;;;;;;;12.06;100.00;101425.22;1060690;27;20356;-43
2023/07/06 01:27:55;;;;;;;13.32;9.30;;;;;;;12.09;100.00;101418.63;1060421;27;20729;-46
2023/07/06 01:28:40;;;;;;;12.65;8.95;;;;;;;12.13;100.00;101430.53;1046477;27;20346;-44
2023/07/06 01:29:28;;;;;;;17.33;9.23;;;;;;;12.15;100.00;101431.13;1060283;27;20371;-44
2023/07/06 01:30:33;;;;;;;12.70;9.30;;;;;;;12.06;100.00;101428.72;1052272;28;20691;-37
2023/07/06 01:31:36;;;;;;;13.15;9.15;;;;;;;12.11;100.00;101432.59;1053641;28;20302;-37
2023/07/06 01:32:15;;;;;;;11.05;9.38;;;;;;;12.13;100.00;101431.34;1061737;27;20354;-45
2023/07/06 01:32:49;;;;;;;13.52;9.60;;;;;;;12.12;100.00;101436.91;1059254;27;20307;-45
2023/07/06 01:33:32;;;;;;;11.20;9.35;;;;;;;12.11;100.00;101433.41;1060489;27;20833;-45
2023/07/06 01:34:25;;;;;;;11.75;9.90;;;;;;;12.12;100.00;101435.06;1059850;27;20296;-44
2023/07/06 01:35:15;;;;;;;13.25;9.80;;;;;;;12.13;100.00;101435.88;1060417;27;20813;-45
2023/07/06 01:36:08;;;;;;;11.23;9.35;;;;;;;12.15;100.00;101428.47;1058056;27;20297;-43
2023/07/06 01:36:46;;;;;;;15.50;9.15;;;;;;;12.20;100.00;101431.31;1060839;27;20460;-36
2023/07/06 01:37:25;;;;;;;11.48;9.02;;;;;;;12.16;100.00;101432.78;1060474;27;20317;-37
2023/07/06 01:37:57;;;;;;;14.45;9.00;;;;;;;12.16;100.00;101425.59;1060229;27;20288;-37
2023/07/06 01:38:29;;;;;;;11.52;9.20;;;;;;;12.18;100.00;101422.69;1056015;28;20659;-37
2023/07/06 01:39:15;;;;;;;10.68;9.20;;;;;;;12.19;100.00;101427.81;1055895;28;20316;-37
2023/07/06 01:39:48;;;;;;;16.45;10.57;;;;;;;12.17;100.00;101429.06;1058596;27;20339;-37
2023/07/06 01:40:19;;;;;;;12.85;10.02;;;;;;;12.18;100.00;101422.69;1060655;27;20761;-37
2023/07/06 01:40:51;;;;;;;16.08;9.60;;;;;;;12.17;100.00;101426.41;1060390;27;20288;-37
2023/07/06 01:41:26;;;;;;;11.65;9.00;;;;;;;12.17;100.00;101426.41;1060709;27;20295;-37
2023/07/06 01:42:13;;;;;;;15.43;10.38;;;;;;;12.12;100.00;101423.56;1057931;27;20292;-37
2023/07/06 01:42:45;;;;;;;15.30;11.48;;;;;;;12.11;100.00;101417.38;1059061;27;20336;-37
2023/07/06 01:43:16;;;;;;;15.18;8.98;;;;;;;12.17;100.00;101426.41;1060461;27;20293;-37
2023/07/06 01:43:51;;;;;;;11.68;9.15;;;;;;;12.13;100.00;101425.19;1059743;27;20299;-37
2023/07/06 01:44:23;;;;;;;17.85;12.10;;;;;;;12.16;100.00;101425.59;1055950;28;20958;-37
2023/07/06 01:44:58;;;;;;;13.32;9.63;;;;;;;12.15;100.00;101426.63;1057226;28;20297;-36
2023/07/06 01:45:30;;;;;;;10.88;8.82;;;;;;;12.21;100.00;101427.59;1060216;27;20693;-37
2023/07/06 01:46:02;;;;;;;17.98;11.02;;;;;;;12.19;100.00;101424.34;1060135;27;20300;-37
2023/07/06 01:46:34;;;;;;;13.65;10.43;;;;;;;12.29;100.00;101424.69;1059438;27;20299;-37
2023/07/06 01:47:06;;;;;;;12.85;8.63;;;;;;;12.20;100.00;101424.13;1056484;28;20312;-36
2023/07/06 01:47:40;;;;;;;10.98;9.50;;;;;;;12.19;100.00;101430.50;1055777;28;20300;-37
2023/07/06 01:48:13;;;;;;;14.27;9.23;;;;;;;12.19;100.00;101419.00;1059405;27;20313;-37
2023/07/06 01:48:46;;;;;;;12.95;10.23;;;;;;;12.16;100.00;101422.09;1055768;28;20313;-37
2023/07/06 01:49:18;;;;;;;13.13;10.52;;;;;;;12.17;100.00;101418.38;1054926;27;20294;-37
2023/07/06 01:49:51;;;;;;;10.60;9.18;;;;;;;12.24;100.00;101421.84;1059212;27;20300;-36
2023/07/06 01:50:32;;;;;;;11.05;8.90;;;;;;;12.28;100.00;101428.38;1052807;28;20302;-37
2023/07/06 01:51:32;;;;;;;15.73;8.77;;;;;;;12.24;100.00;101427.19;1052807;28;20691;-37
2023/07/06 01:52:18;;;;;;;12.18;9.20;;;;;;;12.22;100.00;101432.75;1057292;27;20308;-45
2023/07/06 01:52:59;;;;;;;14.52;9.30;;;;;;;12.22;100.00;101437.25;1060413;27;20667;-45
2023/07/06 01:53:41;;;;;;;13.18;8.95;;;;;;;12.21;100.00;101427.59;1060588;27;20759;-45
2023/07/06 01:54:17;;;;;;;11.75;8.68;;;;;;;12.21;100.00;101432.94;1059787;27;20385;-44
2023/07/06 01:55:02;;;;;;;14.20;9.95;;;;;;;12.16;100.00;101424.75;1060377;27;20387;-48
2023/07/06 01:55:45;;;;;;;15.00;9.90;;;;;;;12.22;100.00;101434.59;1059892;27;20298;-46
2023/07/06 01:56:25;;;;;;;40.40;10.88;;;;;;;12.27;100.00;101437.44;1056417;28;20343;-37
2023/07/06 01:57:05;;;;;;;14.50;9.40;;;;;;;12.22;100.00;101431.91;1052248;28;20297;-44
2023/07/06 01:57:46;;;;;;;16.50;9.73;;;;;;;12.19;100.00;101429.66;1047609;28;20381;-46
2023/07/06 01:58:35;;;;;;;14.32;9.57;;;;;;;12.24;100.00;101437.88;1043996;28;20044;-44
2023/07/06 01:59:10;;;;;;;14.63;9.07;;;;;;;12.22;100.00;101434.59;1039088;28;20734;-45
2023/07/06 01:59:47;;;;;;;11.63;9.35;;;;;;;12.21;100.00;101441.78;1047750;28;20305;-45
2023/07/06 02:00:23;;;;;;;12.35;8.88;;;;;;;12.22;100.00;101434.59;1047622;28;20784;-44
2023/07/06 02:00:59;;;;;;;11.40;9.23;;;;;;;12.29;100.00;101440.72;1047941;28;20303;-44
2023/07/06 02:01:38;;;;;;;14.85;9.52;;;;;;;12.26;100.00;101428.59;1047895;28;20638;-44
2023/07/06 02:02:11;;;;;;;11.77;8.77;;;;;;;12.29;100.00;101435.38;1043487;28;20301;-45
2023/07/06 02:02:44;;;;;;;12.38;8.85;;;;;;;12.27;100.00;101432.09;1041584;28;20307;-43
2023/07/06 02:03:16;;;;;;;13.15;8.48;;;;;;;12.32;100.00;101432.28;1045097;28;20440;-43
2023/07/06 02:03:53;;;;;;;11.45;9.27;;;;;;;12.24;100.00;101436.00;1048685;28;20393;-44
2023/07/06 02:04:25;;;;;;;15.73;10.10;;;;;;;12.25;100.00;101434.16;1053289;28;20294;-44
2023/07/06 02:04:57;;;;;;;10.82;9.27;;;;;;;12.22;100.00;101437.25;1056082;28;20729;-45
2023/07/06 02:05:29;;;;;;;11.20;9.45;;;;;;;12.22;100.00;101435.41;1056240;28;20858;-44
2023/07/06 02:06:01;;;;;;;10.85;9.15;;;;;;;12.25;100.00;101434.16;1056507;28;20663;-44
2023/07/06 02:06:35;;;;;;;14.13;9.43;;;;;;;12.22;100.00;101434.59;1055562;28;20813;-46
2023/07/06 02:07:06;;;;;;;10.82;9.13;;;;;;;12.20;100.00;101433.97;1051794;28;20302;-44
2023/07/06 02:07:41;;;;;;;16.80;10.38;;;;;;;12.20;100.00;101426.78;1051551;28;20298;-46
2023/07/06 02:08:13;;;;;;;10.80;9.50;;;;;;;12.21;100.00;101443.63;1053414;28;20292;-47
2023/07/06 02:08:45;;;;;;;12.35;9.95;;;;;;;12.25;100.00;101434.16;1051806;28;20853;-45
2023/07/06 02:09:18;;;;;;;12.90;10.40;;;;;;;12.18;100.00;101446.72;1052757;28;20682;-42
2023/07/06 02:09:54;;;;;;;12.40;8.57;;;;;;;12.21;100.00;101438.28;1051641;28;20325;-44
2023/07/06 02:10:26;;;;;;;10.40;9.25;;;;;;;12.19;100.00;101440.34;1053025;28;20799;-45
2023/07/06 02:11:01;;;;;;;13.70;9.27;;;;;;;12.24;100.00;101436.00;1055886;28;20289;-46
2023/07/06 02:11:34;;;;;;;12.48;9.18;;;;;;;12.18;100.00;101439.53;1056294;28;20300;-44
2023/07/06 02:12:06;;;;;;;10.27;8.70;;;;;;;12.18;100.00;101438.72;1055696;28;20295;-42
2023/07/06 02:12:38;;;;;;;12.52;9.65;;;;;;;12.17;100.00;101439.75;1055158;28;20298;-37
2023/07/06 02:13:10;;;;;;;12.57;8.80;;;;;;;12.19;100.00;101435.00;1057246;28;20305;-37
2023/07/06 02:13:41;;;;;;;10.77;8.38;;;;;;;12.20;100.00;101436.66;1056287;28;20432;-37
2023/07/06 02:14:13;;;;;;;26.63;11.43;;;;;;;12.22;100.00;101435.41;1056243;28;20776;-37
2023/07/06 02:14:48;;;;;;;14.35;9.15;;;;;;;12.18;100.00;101436.06;1055903;28;20624;-36
2023/07/06 02:15:19;;;;;;;11.60;9.10;;;;;;;12.20;100.00;101436.66;1055581;28;20308;-37
2023/07/06 02:15:51;;;;;;;13.18;9.05;;;;;;;12.21;100.00;101432.94;1055595;28;20293;-37
2023/07/06 02:16:22;;;;;;;13.68;8.95;;;;;;;12.23;100.00;101430.88;1052465;28;20297;-36
2023/07/06 02:16:54;;;;;;;13.32;9.27;;;;;;;12.19;100.00;101435.00;1055844;28;20357;-37
2023/07/06 02:17:26;;;;;;;10.52;9.43;;;;;;;12.17;100.00;101431.75;1056070;28;20797;-37
2023/07/06 02:17:58;;;;;;;18.38;9.50;;;;;;;12.20;100.00;101431.31;1056138;28;20675;-36
2023/07/06 02:18:30;;;;;;;10.18;8.93;;;;;;;12.23;100.00;101431.69;1056002;28;20308;-37
2023/07/06 02:19:03;;;;;;;11.95;9.60;;;;;;;12.20;100.00;101429.47;1056362;28;20289;-36
2023/07/06 02:19:36;;;;;;;13.63;8.73;;;;;;;12.24;100.00;101427.19;1056352;28;20293;-36
2023/07/06 02:20:08;;;;;;;12.68;9.50;;;;;;;12.22;100.00;101429.25;1056338;28;20297;-37
2023/07/06 02:20:39;;;;;;;12.25;9.40;;;;;;;12.23;100.00;101431.69;1056287;28;20301;-37
2023/07/06 02:21:11;;;;;;;13.43;9.65;;;;;;;12.25;100.00;101426.16;1056185;28;20308;-37
2023/07/06 02:21:44;;;;;;;12.38;9.30;;;;;;;12.26;100.00;101433.94;1056529;28;20806;-38
2023/07/06 02:22:17;;;;;;;13.20;9.65;;;;;;;12.21;100.00;101422.25;1052285;28;20297;-45
2023/07/06 02:22:49;;;;;;;10.80;8.73;;;;;;;12.23;100.00;101430.88;1052567;28;20298;-37
2023/07/06 02:23:21;;;;;;;16.15;9.65;;;;;;;12.29;100.00;101424.69;1052005;28;20281;-36
2023/07/06 02:23:53;;;;;;;11.30;8.82;;;;;;;12.23;100.00;101436.22;1052744;28;20381;-37
2023/07/06 02:24:25;;;;;;;12.10;9.23;;;;;;;12.20;100.00;101425.97;1056122;28;20634;-37
2023/07/06 02:24:57;;;;;;;12.80;9.65;;;;;;;12.21;100.00;101431.09;1056486;28;20298;-36
2023/07/06 02:25:29;;;;;;;11.18;8.63;;;;;;;12.32;100.00;101430.41;1055722;28;20329;-36
2023/07/06 02:26:01;;;;;;;12.98;9.07;;;;;;;12.29;100.00;101420.16;1055954;28;20301;-37
2023/07/06 02:26:33;;;;;;;12.07;9.30;;;;;;;12.25;100.00;101423.47;1056254;28;20772;-36
2023/07/06 02:27:05;;;;;;;11.27;9.25;;;;;;;12.25;100.00;101421.63;1053628;28;20298;-37
2023/07/06 02:27:37;;;;;;;9.45;8.15;;;;;;;12.26;100.00;101419.78;1055628;28;20410;-38
2023/07/06 02:28:10;;;;;;;15.05;8.82;;;;;;;12.37;100.00;101421.78;1056598;28;20770;-37
2023/07/06 02:28:42;;;;;;;14.95;9.38;;;;;;;12.32;100.00;101424.25;1056432;28;20409;-37
2023/07/06 02:29:14;;;;;;;14.30;9.27;;;;;;;12.29;100.00;101422.84;1056994;28;20312;-37
2023/07/06 02:29:46;;;;;;;11.50;9.13;;;;;;;12.29;100.00;101419.34;1056414;28;20035;-37
2023/07/06 02:30:18;;;;;;;14.88;9.27;;;;;;;12.27;100.00;101416.88;1056251;28;20438;-36
2023/07/06 02:30:52;;;;;;;11.05;9.90;;;;;;;12.27;100.00;101422.22;1056400;28;20301;-36
2023/07/06 02:31:24;;;;;;;14.27;9.32;;;;;;;12.27;100.00;101418.75;1056316;28;20301;-37
2023/07/06 02:31:56;;;;;;;13.70;9.32;;;;;;;12.31;100.00;101422.63;1056697;28;20691;-45
2023/07/06 02:32:31;;;;;;;15.45;8.63;;;;;;;12.32;100.00;101421.59;1056635;28;20281;-44
2023/07/06 02:33:02;;;;;;;13.52;8.80;;;;;;;12.26;100.00;101420.59;1051321;28;20411;-46
2023/07/06 02:33:34;;;;;;;15.60;9.95;;;;;;;12.28;100.00;101423.03;1052773;28;20304;-44
2023/07/06 02:34:06;;;;;;;14.23;8.43;;;;;;;12.25;100.00;101423.47;1055978;28;20297;-45
2023/07/06 02:34:38;;;;;;;15.88;8.77;;;;;;;12.20;100.00;101423.31;1055646;28;20354;-47
2023/07/06 02:35:10;;;;;;;17.30;7.75;;;;;;;12.16;100.00;101424.75;1056629;28;20293;-44
2023/07/06 02:35:45;;;;;;;12.95;9.27;;;;;;;12.16;100.00;101424.75;1055876;28;20305;-43
2023/07/06 02:36:17;;;;;;;13.85;8.48;;;;;;;12.15;100.00;101423.13;1055967;28;20301;-44
2023/07/06 02:36:49;;;;;;;11.20;8.77;;;;;;;12.18;100.00;101428.03;1055895;28;20308;-44
2023/07/06 02:37:23;;;;;;;13.20;9.55;;;;;;;12.18;100.00;101422.69;1056073;28;20798;-46
2023/07/06 02:37:54;;;;;;;12.20;8.98;;;;;;;12.20;100.00;101420.63;1055790;28;20672;-49
2023/07/06 02:38:29;;;;;;;11.32;8.88;;;;;;;12.11;100.00;101417.38;1055906;28;20411;-44
2023/07/06 02:39:03;;;;;;;14.57;9.88;;;;;;;12.14;100.00;101426.81;1055957;28;20382;-43
2023/07/06 02:39:34;;;;;;;15.13;9.88;;;;;;;12.25;100.00;101418.13;1056106;28;20790;-44
2023/07/06 02:40:10;;;;;;;15.07;9.63;;;;;;;12.20;100.00;101423.31;1055663;28;20728;-45
2023/07/06 02:40:43;;;;;;;11.30;9.00;;;;;;;12.12;100.00;101423.56;1055655;28;20426;-44
2023/07/06 02:41:14;;;;;;;11.07;9.07;;;;;;;12.16;100.00;101422.09;1056179;28;20380;-47
2023/07/06 02:41:46;;;;;;;11.93;7.47;;;;;;;12.13;100.00;101419.84;1055997;28;20412;-46
2023/07/06 02:42:19;;;;;;;11.10;9.77;;;;;;;12.14;100.00;101418.81;1055482;28;20324;-44